createdAt,value
2018-05-19T00:02:21.302Z,6.90
2018-05-19T00:04:49.339Z,6.80
2018-05-19T00:07:17.389Z,6.70
2018-05-19T00:09:45.401Z,6.50
2018-05-19T00:12:14.424Z,6.50
2018-05-19T00:14:48.320Z,6.50
2018-05-19T00:17:18.324Z,6.50
2018-05-19T00:19:48.356Z,6.40
2018-05-19T00:22:16.399Z,6.40
2018-05-19T00:24:44.418Z,6.40
2018-05-19T00:27:17.522Z,6.40
2018-05-19T00:29:51.284Z,6.50
2018-05-19T00:32:20.328Z,6.60
2018-05-19T00:34:49.363Z,6.60
2018-05-19T00:37:18.281Z,6.70
2018-05-19T00:39:51.364Z,6.60
2018-05-19T00:42:25.828Z,6.50
2018-05-19T00:44:54.904Z,6.40
2018-05-19T00:47:23.871Z,6.40
2018-05-19T00:52:49.352Z,6.50
2018-05-19T00:55:19.343Z,6.40
2018-05-19T00:57:50.340Z,6.60
2018-05-19T01:00:23.119Z,6.60
2018-05-19T01:02:52.109Z,6.60
2018-05-19T01:05:22.124Z,6.70
2018-05-19T01:07:55.912Z,6.70
2018-05-19T01:10:24.823Z,6.70
2018-05-19T01:13:01.262Z,6.70
2018-05-19T01:15:43.859Z,6.60
2018-05-19T01:18:12.763Z,6.50
2018-05-19T01:20:43.920Z,6.40
2018-05-19T01:23:13.927Z,6.30
2018-05-19T01:25:49.340Z,6.30
2018-05-19T01:28:18.284Z,6.30
2018-05-19T01:30:47.274Z,6.30
2018-05-19T01:33:16.264Z,6.20
2018-05-19T01:35:48.020Z,6.00
2018-05-19T01:38:17.020Z,5.90
2018-05-19T01:40:46.088Z,5.70
2018-05-19T01:43:15.112Z,5.60
2018-05-19T01:45:55.348Z,5.60
2018-05-19T01:48:24.295Z,5.50
2018-05-19T01:50:52.311Z,5.50
2018-05-19T01:53:22.331Z,5.40
2018-05-19T01:55:50.348Z,5.40
2018-05-19T01:58:25.240Z,5.40
2018-05-19T02:00:56.892Z,5.30
2018-05-19T02:03:25.916Z,5.30
2018-05-19T02:05:53.928Z,5.30
2018-05-19T02:08:22.952Z,5.40
2018-05-19T02:10:52.868Z,5.30
2018-05-19T02:13:20.904Z,5.30
2018-05-19T02:15:48.919Z,5.30
2018-05-19T02:18:16.935Z,5.30
2018-05-19T02:20:46.918Z,5.30
2018-05-19T02:23:14.900Z,5.30
2018-05-19T02:25:46.408Z,5.30
2018-05-19T02:28:15.443Z,5.20
2018-05-19T02:30:53.476Z,5.20
2018-05-19T02:33:25.504Z,5.10
2018-05-19T02:36:01.198Z,5.00
2018-05-19T02:38:32.248Z,5.00
2018-05-19T02:41:04.020Z,4.90
2018-05-19T02:43:35.919Z,4.90
2018-05-19T02:46:04.912Z,5.00
2018-05-19T02:48:32.952Z,5.00
2018-05-19T02:51:02.956Z,4.90
2018-05-19T02:53:32.983Z,4.90
2018-05-19T02:56:06.467Z,4.90
2018-05-19T02:58:34.520Z,4.90
2018-05-19T03:01:02.528Z,4.90
2018-05-19T03:03:36.764Z,4.90
2018-05-19T03:06:08.208Z,4.90
2018-05-19T03:08:36.263Z,4.90
2018-05-19T03:11:06.634Z,4.90
2018-05-19T03:13:36.020Z,4.90
2018-05-19T03:16:14.364Z,4.90
2018-05-19T03:18:45.883Z,4.80
2018-05-19T03:21:17.203Z,4.80
2018-05-19T03:23:47.952Z,4.70
2018-05-19T03:26:26.431Z,4.70
2018-05-19T03:28:56.488Z,4.70
2018-05-19T03:31:30.357Z,4.70
2018-05-19T03:34:11.492Z,4.60
2018-05-19T03:37:03.551Z,4.60
2018-05-19T03:39:37.380Z,4.70
2018-05-19T03:42:07.180Z,4.90
2018-05-19T03:44:37.488Z,4.90
2018-05-19T03:47:05.675Z,5.00
2018-05-19T03:49:58.815Z,5.10
2018-05-19T03:52:28.846Z,5.20
2018-05-19T03:55:02.011Z,5.30
2018-05-19T03:57:46.374Z,5.30
2018-05-19T04:00:26.142Z,5.30
2018-05-19T04:02:58.326Z,5.30
2018-05-19T04:05:27.158Z,5.40
2018-05-19T04:07:58.828Z,5.40
2018-05-19T04:10:27.867Z,5.50
2018-05-19T04:12:57.651Z,5.70
2018-05-19T04:15:29.443Z,5.70
2018-05-19T04:18:08.846Z,6.00
2018-05-19T04:20:37.071Z,6.00
2018-05-19T04:23:07.370Z,6.20
2018-05-19T04:28:32.483Z,6.40
2018-05-19T04:31:01.347Z,6.30
2018-05-19T04:33:31.372Z,6.30
2018-05-19T04:36:00.391Z,6.40
2018-05-19T04:38:33.457Z,6.60
2018-05-19T04:41:03.494Z,6.70
2018-05-19T04:43:55.994Z,7.00
2018-05-19T04:46:25.022Z,7.00
2018-05-19T04:49:04.535Z,7.10
2018-05-19T04:51:35.350Z,7.20
2018-05-19T04:54:07.650Z,7.50
2018-05-19T04:56:39.031Z,7.70
2018-05-19T04:59:19.534Z,8.00
2018-05-19T05:01:59.210Z,8.10
2018-05-19T05:04:27.227Z,8.20
2018-05-19T05:06:56.299Z,8.30
2018-05-19T05:09:28.501Z,8.40
2018-05-19T05:12:20.099Z,8.50
2018-05-19T05:14:48.203Z,8.60
2018-05-19T05:17:17.156Z,8.70
2018-05-19T05:19:47.906Z,9.10
2018-05-19T05:22:16.857Z,9.10
2018-05-19T05:24:49.411Z,9.40
2018-05-19T05:27:23.134Z,9.30
2018-05-19T05:29:58.098Z,9.50
2018-05-19T05:32:26.858Z,9.80
2018-05-19T05:34:55.692Z,9.90
2018-05-19T05:37:27.034Z,9.90
2018-05-19T05:40:09.158Z,10.40
2018-05-19T05:42:37.215Z,10.40
2018-05-19T05:45:05.266Z,10.60
2018-05-19T05:47:40.666Z,10.80
2018-05-19T05:50:11.698Z,11.10
2018-05-19T05:52:46.442Z,11.70
2018-05-19T05:55:18.515Z,12.10
2018-05-19T05:57:47.574Z,12.00
2018-05-19T06:00:43.982Z,12.40
2018-05-19T06:03:22.439Z,12.60
2018-05-19T06:05:51.447Z,12.90
2018-05-19T06:08:20.434Z,13.20
2018-05-19T06:10:49.744Z,13.50
2018-05-19T06:13:25.318Z,14.40
2018-05-19T06:15:59.545Z,14.40
2018-05-19T06:18:35.824Z,15.00
2018-05-19T06:21:05.579Z,15.30
2018-05-19T06:23:34.722Z,15.40
2018-05-19T06:26:08.457Z,15.40
2018-05-19T06:28:37.463Z,15.60
2018-05-19T06:31:09.214Z,15.90
2018-05-19T06:33:39.131Z,16.50
2018-05-19T06:36:08.119Z,16.80
2018-05-19T06:38:38.171Z,16.70
2018-05-19T06:41:06.199Z,17.00
2018-05-19T06:43:35.227Z,17.20
2018-05-19T06:46:07.482Z,17.20
2018-05-19T06:48:48.786Z,17.00
2018-05-19T06:51:30.475Z,16.70
2018-05-19T06:54:02.254Z,16.70
2018-05-19T06:56:32.322Z,16.70
2018-05-19T06:59:17.922Z,16.70
2018-05-19T07:02:00.750Z,16.30
2018-05-19T07:04:34.830Z,16.10
2018-05-19T07:07:05.558Z,15.90
2018-05-19T07:09:39.298Z,15.90
2018-05-19T07:12:28.982Z,15.90
2018-05-19T07:15:02.710Z,16.30
2018-05-19T07:17:30.755Z,16.90
2018-05-19T07:20:00.722Z,17.20
2018-05-19T07:22:33.679Z,17.60
2018-05-19T07:25:02.710Z,18.00
2018-05-19T07:27:31.764Z,18.10
2018-05-19T07:30:09.798Z,18.30
2018-05-19T07:32:37.870Z,18.40
2018-05-19T07:35:05.919Z,18.10
2018-05-19T07:37:41.870Z,18.10
2018-05-19T07:40:27.966Z,18.20
2018-05-19T07:42:58.634Z,18.90
2018-05-19T07:45:28.787Z,18.90
2018-05-19T07:47:57.834Z,19.20
2018-05-19T07:50:28.034Z,19.20
2018-05-19T07:53:09.123Z,19.20
2018-05-19T07:55:41.778Z,19.10
2018-05-19T07:58:09.911Z,18.80
2018-05-19T08:00:47.146Z,18.80
2018-05-19T08:03:17.234Z,18.80
2018-05-19T08:05:49.011Z,19.30
2018-05-19T08:08:23.409Z,19.50
2018-05-19T08:10:51.374Z,19.80
2018-05-19T08:13:23.308Z,20.40
2018-05-19T08:15:54.071Z,21.10
2018-05-19T08:18:29.514Z,21.00
2018-05-19T08:23:59.826Z,21.50
2018-05-19T08:26:38.816Z,21.10
2018-05-19T08:34:58.841Z,21.70
2018-05-19T08:40:26.334Z,20.40
2018-05-19T08:48:44.967Z,22.20
2018-05-19T08:51:17.411Z,23.30
2018-05-19T08:54:00.513Z,23.40
2018-05-19T08:56:40.090Z,23.40
2018-05-19T08:59:33.658Z,22.70
2018-05-19T09:02:11.243Z,23.20
2018-05-19T09:08:05.195Z,23.00
2018-05-19T09:10:39.955Z,23.80
2018-05-19T09:13:18.578Z,24.50
2018-05-19T09:15:47.386Z,26.50
2018-05-19T09:21:14.858Z,25.60
2018-05-19T09:23:42.903Z,26.30
2018-05-19T09:26:11.698Z,27.70
2018-05-19T09:28:57.430Z,27.70
2018-05-19T09:31:27.475Z,28.10
2018-05-19T09:33:57.410Z,27.90
2018-05-19T09:36:29.361Z,28.30
2018-05-19T09:39:06.655Z,27.70
2018-05-19T09:41:35.086Z,27.00
2018-05-19T09:44:16.375Z,26.70
2018-05-19T09:46:49.661Z,27.00
2018-05-19T09:49:22.622Z,26.80
2018-05-19T09:51:50.662Z,27.10
2018-05-19T09:54:18.682Z,26.90
2018-05-19T09:56:46.718Z,27.20
2018-05-19T09:59:15.574Z,28.80
2018-05-19T10:01:56.646Z,29.80
2018-05-19T10:04:27.897Z,29.70
2018-05-19T10:06:56.898Z,30.40
2018-05-19T10:09:26.894Z,30.90
2018-05-19T10:11:55.020Z,31.30
2018-05-19T10:14:22.990Z,31.00
2018-05-19T10:16:52.986Z,31.30
2018-05-19T10:19:30.605Z,31.40
2018-05-19T10:24:52.810Z,31.80
2018-05-19T10:27:23.961Z,33.20
2018-05-19T10:30:03.486Z,33.30
2018-05-19T10:32:31.522Z,33.20
2018-05-19T10:35:01.458Z,34.30
2018-05-19T10:37:30.434Z,35.90
2018-05-19T10:40:11.907Z,36.20
2018-05-19T10:42:39.962Z,36.10
2018-05-19T10:45:08.013Z,35.80
2018-05-19T10:47:38.726Z,33.60
2018-05-19T10:50:13.290Z,32.60
2018-05-19T10:52:41.361Z,32.60
2018-05-19T10:55:12.061Z,30.90
2018-05-19T10:57:41.062Z,30.90
2018-05-19T11:00:13.682Z,32.30
2018-05-19T11:02:42.726Z,32.30
2018-05-19T11:05:10.785Z,33.80
2018-05-19T11:07:38.827Z,35.00
2018-05-19T11:10:10.108Z,34.70
2018-05-19T11:12:41.893Z,35.00
2018-05-19T11:15:14.486Z,32.20
2018-05-19T11:17:43.817Z,32.20
2018-05-19T11:20:27.113Z,32.20
2018-05-19T11:22:56.070Z,31.30
2018-05-19T11:25:48.111Z,32.90
2018-05-19T11:28:16.065Z,34.90
2018-05-19T11:30:52.241Z,35.80
2018-05-19T11:36:15.202Z,37.30
2018-05-19T11:38:45.933Z,35.70
2018-05-19T11:41:17.677Z,35.70
2018-05-19T11:43:59.065Z,35.70
2018-05-19T11:46:29.117Z,32.80
2018-05-19T11:49:11.026Z,32.70
2018-05-19T11:51:58.374Z,32.70
2018-05-19T11:54:38.625Z,33.80
2018-05-19T11:57:06.712Z,33.90
2018-05-19T11:59:34.781Z,32.20
2018-05-19T12:02:16.438Z,31.60
2018-05-19T12:04:47.734Z,31.90
2018-05-19T12:07:28.765Z,32.50
2018-05-19T12:10:02.965Z,31.90
2018-05-19T12:12:32.054Z,31.90
2018-05-19T12:15:13.061Z,32.70
2018-05-19T12:20:40.686Z,31.80
2018-05-19T12:23:11.634Z,32.90
2018-05-19T12:25:41.713Z,32.90
2018-05-19T12:28:11.976Z,34.40
2018-05-19T12:30:42.287Z,35.20
2018-05-19T12:33:13.101Z,30.30
2018-05-19T12:35:44.962Z,30.30
2018-05-19T12:38:14.171Z,29.70
2018-05-19T12:40:50.445Z,29.20
2018-05-19T12:43:24.449Z,28.30
2018-05-19T12:45:56.385Z,26.90
2018-05-19T12:48:24.521Z,26.50
2018-05-19T12:50:53.605Z,26.00
2018-05-19T12:53:22.637Z,25.70
2018-05-19T12:55:52.621Z,26.10
2018-05-19T12:58:24.824Z,26.10
2018-05-19T13:00:52.909Z,26.40
2018-05-19T13:03:25.349Z,26.10
2018-05-19T13:05:55.226Z,26.60
2018-05-19T13:08:25.061Z,25.20
2018-05-19T13:10:53.997Z,25.10
2018-05-19T13:13:27.776Z,26.00
2018-05-19T13:15:59.305Z,26.80
2018-05-19T13:18:28.393Z,26.90
2018-05-19T13:21:02.093Z,27.00
2018-05-19T13:23:30.229Z,27.40
2018-05-19T13:26:16.191Z,27.30
2018-05-19T13:28:44.360Z,27.50
2018-05-19T13:31:13.346Z,28.20
2018-05-19T13:33:41.371Z,28.30
2018-05-19T13:36:11.171Z,27.80
2018-05-19T13:38:40.141Z,27.70
2018-05-19T13:41:08.201Z,26.30
2018-05-19T13:43:38.664Z,26.10
2018-05-19T13:46:11.185Z,26.10
2018-05-19T13:48:41.644Z,27.30
2018-05-19T13:51:09.712Z,27.50
2018-05-19T13:53:39.733Z,26.80
2018-05-19T13:56:11.576Z,25.50
2018-05-19T13:58:40.497Z,23.10
2018-05-19T14:01:12.949Z,19.90
2018-05-19T14:03:41.959Z,18.50
2018-05-19T14:06:11.972Z,17.80
2018-05-19T14:08:42.096Z,17.70
2018-05-19T14:11:13.648Z,17.90
2018-05-19T14:13:41.707Z,17.90
2018-05-19T14:16:09.816Z,17.70
2018-05-19T14:18:42.672Z,17.30
2018-05-19T14:21:11.700Z,17.00
2018-05-19T14:23:39.828Z,16.80
2018-05-19T14:26:07.892Z,16.60
2018-05-19T14:28:36.900Z,16.40
2018-05-19T14:31:12.868Z,16.40
2018-05-19T14:33:41.828Z,16.20
2018-05-19T14:39:16.965Z,15.80
2018-05-19T14:41:45.944Z,15.70
2018-05-19T14:44:17.259Z,15.60
2018-05-19T14:47:06.696Z,15.40
2018-05-19T14:49:49.779Z,15.30
2018-05-19T14:52:18.708Z,15.20
2018-05-19T14:55:00.390Z,15.00
2018-05-19T14:57:28.588Z,14.90
2018-05-19T15:00:00.523Z,14.80
2018-05-19T15:02:32.320Z,14.80
2018-05-19T15:05:02.271Z,14.70
2018-05-19T15:07:32.188Z,14.80
2018-05-19T15:10:02.173Z,14.80
2018-05-19T15:12:39.459Z,14.90
2018-05-19T15:15:10.667Z,14.90
2018-05-19T15:17:38.697Z,14.90
2018-05-19T15:20:08.652Z,15.00
2018-05-19T15:25:32.408Z,14.80
2018-05-19T15:28:05.760Z,14.80
2018-05-19T15:30:34.749Z,14.60
2018-05-19T15:33:03.696Z,14.40
2018-05-19T15:35:32.572Z,14.10
2018-05-19T15:38:00.600Z,14.10
2018-05-19T15:40:33.280Z,14.00
2018-05-19T15:43:06.012Z,13.90
2018-05-19T15:45:36.836Z,14.20
2018-05-19T15:48:06.865Z,14.20
2018-05-19T15:50:35.012Z,14.40
2018-05-19T15:53:03.948Z,14.60
2018-05-19T15:55:33.868Z,14.80
2018-05-19T15:58:05.748Z,15.00
2018-05-19T16:00:38.404Z,15.30
2018-05-19T16:03:07.399Z,15.60
2018-05-19T16:05:38.024Z,16.00
2018-05-19T16:08:07.044Z,15.90
2018-05-19T16:10:36.068Z,16.10
2018-05-19T16:13:07.173Z,16.20
2018-05-19T16:15:36.156Z,16.20
2018-05-19T16:18:04.187Z,16.30
2018-05-19T16:20:33.100Z,16.50
2018-05-19T16:23:03.028Z,16.70
2018-05-19T16:25:37.004Z,16.80
2018-05-19T16:28:09.084Z,16.90
2018-05-19T16:30:37.124Z,17.00
2018-05-19T16:33:08.511Z,17.10
2018-05-19T16:35:36.796Z,17.20
2018-05-19T16:38:06.708Z,17.30
2018-05-19T16:40:38.564Z,17.40
2018-05-19T16:43:07.580Z,17.30
2018-05-19T16:45:37.579Z,17.20
2018-05-19T16:48:05.600Z,17.20
2018-05-19T16:50:38.639Z,17.20
2018-05-19T16:53:07.547Z,16.80
2018-05-19T16:55:38.270Z,16.40
2018-05-19T16:58:14.636Z,16.40
2018-05-19T17:00:45.596Z,16.50
2018-05-19T17:06:08.562Z,16.80
2018-05-19T17:09:02.299Z,17.10
2018-05-19T17:11:32.175Z,17.10
2018-05-19T17:14:04.906Z,17.20
2018-05-19T17:16:33.839Z,17.10
2018-05-19T17:19:06.463Z,17.00
2018-05-19T17:21:34.487Z,16.90
2018-05-19T17:24:19.771Z,16.70
2018-05-19T17:26:48.571Z,16.50
2018-05-19T17:29:17.591Z,16.40
2018-05-19T17:31:45.615Z,16.40
2018-05-19T17:34:20.363Z,16.30
2018-05-19T17:36:48.387Z,16.20
2018-05-19T17:39:28.132Z,15.80
2018-05-19T17:42:01.323Z,15.80
2018-05-19T17:44:31.158Z,15.60
2018-05-19T17:46:59.175Z,15.50
2018-05-19T17:49:28.107Z,15.50
2018-05-19T17:51:57.026Z,15.40
2018-05-19T17:54:30.399Z,15.30
2018-05-19T17:56:58.519Z,15.30
2018-05-19T17:59:31.051Z,15.30
2018-05-19T18:02:01.059Z,15.30
2018-05-19T18:04:31.159Z,15.20
2018-05-19T18:07:00.981Z,15.10
2018-05-19T18:09:34.231Z,15.10
2018-05-19T18:12:05.883Z,15.10
2018-05-19T18:14:35.595Z,15.00
2018-05-19T18:17:03.799Z,15.00
2018-05-19T18:19:32.991Z,15.00
2018-05-19T18:22:01.140Z,15.00
2018-05-19T18:24:29.147Z,14.90
2018-05-19T18:26:58.119Z,14.90
2018-05-19T18:29:27.127Z,14.90
2018-05-19T18:32:08.448Z,14.90
2018-05-19T18:34:42.583Z,14.90
2018-05-19T18:37:11.651Z,14.90
2018-05-19T18:39:42.747Z,14.80
2018-05-19T18:42:21.279Z,14.80
2018-05-19T18:44:53.269Z,14.70
2018-05-19T18:47:23.231Z,14.60
2018-05-19T18:49:51.255Z,14.60
2018-05-19T18:52:20.319Z,14.60
2018-05-19T18:54:57.007Z,14.50
2018-05-19T18:57:25.967Z,14.50
2018-05-19T19:00:02.132Z,14.60
2018-05-19T19:02:34.179Z,14.50
2018-05-19T19:05:07.030Z,14.50
2018-05-19T19:07:40.759Z,14.40
2018-05-19T19:10:16.295Z,14.40
2018-05-19T19:12:50.099Z,14.50
2018-05-19T19:15:21.067Z,14.40
2018-05-19T19:17:54.819Z,14.40
2018-05-19T19:20:22.828Z,14.40
2018-05-19T19:22:51.815Z,14.40
2018-05-19T19:25:20.663Z,14.40
2018-05-19T19:27:52.279Z,14.40
2018-05-19T19:30:38.407Z,14.40
2018-05-19T19:33:07.385Z,14.30
2018-05-19T19:35:37.003Z,14.20
2018-05-19T19:38:08.019Z,14.20
2018-05-19T19:40:36.051Z,14.20
2018-05-19T19:43:09.542Z,14.10
2018-05-19T19:48:34.502Z,14.00
2018-05-19T19:51:05.215Z,13.90
2018-05-19T19:53:35.235Z,13.90
2018-05-19T19:56:06.680Z,13.90
2018-05-19T19:58:34.734Z,13.80
2018-05-19T20:01:02.762Z,13.80
2018-05-19T20:03:35.811Z,13.80
2018-05-19T20:06:04.799Z,13.90
2018-05-19T20:08:33.882Z,13.80
2018-05-19T20:11:02.895Z,13.70
2018-05-19T20:13:30.922Z,13.70
2018-05-19T20:15:59.746Z,13.60
2018-05-19T20:18:35.059Z,13.60
2018-05-19T20:21:08.187Z,13.60
2018-05-19T20:23:37.131Z,13.60
2018-05-19T20:26:11.587Z,13.50
2018-05-19T20:28:39.602Z,13.50
2018-05-19T20:31:31.274Z,13.40
2018-05-19T20:34:00.279Z,13.40
2018-05-19T20:36:29.334Z,13.40
2018-05-19T20:39:00.735Z,13.30
2018-05-19T20:41:32.627Z,13.30
2018-05-19T20:44:02.587Z,13.30
2018-05-19T20:46:32.635Z,13.30
2018-05-19T20:49:04.723Z,13.30
2018-05-19T20:51:32.758Z,13.30
2018-05-19T20:54:01.982Z,13.30
2018-05-19T20:56:44.422Z,13.30
2018-05-19T20:59:13.715Z,13.30
2018-05-19T21:01:41.739Z,13.40
2018-05-19T21:04:19.494Z,13.50
2018-05-19T21:06:51.486Z,13.50
2018-05-19T21:09:19.579Z,13.60
2018-05-19T21:11:49.517Z,13.60
2018-05-19T21:14:29.499Z,13.60
2018-05-19T21:16:58.842Z,13.60
2018-05-19T21:19:30.410Z,13.70
2018-05-19T21:22:02.105Z,13.70
2018-05-19T21:24:31.115Z,13.70
2018-05-19T21:27:02.766Z,13.70
2018-05-19T21:29:34.570Z,13.70
2018-05-19T21:32:02.610Z,13.70
2018-05-19T21:34:31.586Z,13.70
2018-05-19T21:37:04.059Z,13.70
2018-05-19T21:39:33.063Z,13.70
2018-05-19T21:42:02.083Z,13.80
2018-05-19T21:44:35.562Z,13.80
2018-05-19T21:47:15.174Z,13.80
2018-05-19T21:49:50.014Z,13.80
2018-05-19T21:52:32.522Z,13.70
2018-05-19T21:55:06.530Z,13.70
2018-05-19T21:57:35.691Z,13.80
2018-05-19T22:00:04.642Z,13.70
2018-05-19T22:02:36.207Z,13.70
2018-05-19T22:05:04.277Z,13.70
2018-05-19T22:07:33.087Z,13.60
2018-05-19T22:10:12.498Z,13.60
2018-05-19T22:12:42.290Z,13.60
2018-05-19T22:15:11.282Z,13.50
2018-05-19T22:17:39.338Z,13.50
2018-05-19T22:20:08.282Z,13.50
2018-05-19T22:22:36.346Z,13.40
2018-05-19T22:25:05.298Z,13.40
2018-05-19T22:27:33.391Z,13.40
2018-05-19T22:30:04.109Z,13.40
2018-05-19T22:32:37.690Z,13.40
2018-05-19T22:35:11.390Z,13.30
2018-05-19T22:37:41.322Z,13.30
2018-05-19T22:40:13.002Z,13.30
2018-05-19T22:42:43.009Z,13.30
2018-05-19T22:45:12.011Z,13.40
2018-05-19T22:47:40.834Z,13.40
2018-05-19T22:50:12.770Z,13.30
2018-05-19T22:52:43.515Z,13.40
2018-05-19T22:55:15.542Z,13.30
2018-05-19T22:57:50.862Z,13.40
2018-05-19T23:00:22.744Z,13.40
2018-05-19T23:02:50.778Z,13.40
2018-05-19T23:05:18.821Z,13.40
2018-05-19T23:07:50.129Z,13.40
2018-05-19T23:10:21.894Z,13.40
2018-05-19T23:12:55.641Z,13.40
2018-05-19T23:15:27.430Z,13.40
2018-05-19T23:17:55.457Z,13.30
2018-05-19T23:20:26.973Z,13.30
2018-05-19T23:22:58.965Z,13.30
2018-05-19T23:25:26.990Z,13.30
2018-05-19T23:27:58.514Z,13.30
2018-05-19T23:30:33.789Z,13.40
2018-05-19T23:33:11.005Z,13.40
2018-05-19T23:35:43.053Z,13.40
2018-05-19T23:38:18.411Z,13.40
2018-05-19T23:40:48.343Z,13.40
2018-05-19T23:43:18.317Z,13.40
2018-05-19T23:45:48.061Z,13.40
2018-05-19T23:48:16.094Z,13.30
2018-05-19T23:50:44.130Z,13.20
2018-05-19T23:53:15.713Z,13.20
2018-05-19T23:55:43.769Z,13.10
2018-05-19T23:58:11.785Z,13.10
